Time;durP1;ratioP1;P1;durP2;ratioP2;P2;SDS_P1;SDS_P2;PMS_P1;PMS_P2;Temp;Humidity;BMP_temperature;BMP_pressure;BME280_temperature;BME280_humidity;BME280_pressure;Samples;Min_cycle;Max_cycle;Signal;HPM_P1;HPM_P2
2022/12/16 00:00:02;;;;;;;;;;;1.30;99.90;;;;;;5030274;28;19924;-76
2022/12/16 00:02:28;;;;;;;;;;;1.30;99.90;;;;;;5031434;28;19972;-75
2022/12/16 00:04:53;;;;;;;;;;;1.30;99.90;;;;;;5033979;28;19909;-75
2022/12/16 00:07:19;;;;;;;;;;;1.30;99.90;;;;;;5034551;28;20434;-76
2022/12/16 00:09:44;;;;;;;;;;;1.40;99.90;;;;;;5037702;28;20705;-76
2022/12/16 00:12:10;;;;;;;;;;;1.40;99.90;;;;;;5038946;28;19913;-75
2022/12/16 00:14:35;;;;;;;;;;;1.50;99.90;;;;;;5033405;28;19953;-75
2022/12/16 00:17:01;;;;;;;;;;;1.50;99.90;;;;;;5029345;28;19924;-73
2022/12/16 00:19:26;;;;;;;;;;;1.60;99.90;;;;;;5028443;28;19984;-76
2022/12/16 00:21:51;;;;;;;;;;;1.60;99.90;;;;;;5036487;28;19905;-76
2022/12/16 00:24:17;;;;;;;;;;;1.80;99.90;;;;;;5013167;28;19909;-77
2022/12/16 00:26:42;;;;;;;;;;;1.90;99.90;;;;;;5025734;28;19980;-76
2022/12/16 00:29:10;;;;;;;;;;;1.90;99.90;;;;;;5036446;28;19927;-74
2022/12/16 00:31:35;;;;;;;;;;;2.10;99.90;;;;;;5041843;28;19905;-76
2022/12/16 00:34:01;;;;;;;;;;;2.10;99.90;;;;;;5037199;28;20000;-74
2022/12/16 00:36:26;;;;;;;;;;;2.20;99.90;;;;;;5023658;28;20000;-77
2022/12/16 00:38:51;;;;;;;;;;;2.30;99.90;;;;;;5033378;28;19905;-76
2022/12/16 00:41:17;;;;;;;;;;;2.40;99.90;;;;;;5028243;28;20449;-77
2022/12/16 00:43:42;;;;;;;;;;;2.50;99.90;;;;;;5027352;28;19912;-76
2022/12/16 00:46:08;;;;;;;;;;;2.50;99.90;;;;;;5025728;28;19948;-78
2022/12/16 00:48:33;;;;;;;;;;;2.70;99.90;;;;;;5028689;28;20137;-77
2022/12/16 00:50:59;;;;;;;;;;;2.80;99.90;;;;;;5025249;28;20430;-76
2022/12/16 00:53:24;;;;;;;;;;;2.80;99.90;;;;;;5021078;28;19941;-76
2022/12/16 00:55:51;;;;;;;;;;;2.80;99.90;;;;;;5028397;28;20015;-77
2022/12/16 00:58:16;;;;;;;;;;;3.00;99.90;;;;;;5023541;28;19920;-77
2022/12/16 01:00:42;;;;;;;;;;;3.00;99.90;;;;;;5027286;28;19921;-76
2022/12/16 01:03:07;;;;;;;;;;;3.10;99.90;;;;;;5009199;28;19964;-76
2022/12/16 01:05:33;;;;;;;;;;;3.00;99.90;;;;;;5021555;28;19955;-76
2022/12/16 01:07:58;;;;;;;;;;;3.20;99.90;;;;;;5006713;28;20000;-75
2022/12/16 01:10:24;;;;;;;;;;;3.10;99.90;;;;;;5026387;28;19964;-76
2022/12/16 01:12:50;;;;;;;;;;;3.20;99.90;;;;;;5024280;28;19999;-76
2022/12/16 01:15:16;;;;;;;;;;;3.20;99.90;;;;;;5024974;28;19921;-77
2022/12/16 01:17:42;;;;;;;;;;;3.30;99.90;;;;;;5023018;28;20441;-76
2022/12/16 01:20:08;;;;;;;;;;;3.30;99.90;;;;;;5025674;28;19943;-77
2022/12/16 01:22:34;;;;;;;;;;;3.40;99.90;;;;;;5024617;28;19917;-76
2022/12/16 01:25:00;;;;;;;;;;;3.50;99.90;;;;;;5020795;28;20454;-73
2022/12/16 01:27:26;;;;;;;;;;;3.60;99.90;;;;;;5016744;28;19910;-77
2022/12/16 01:29:52;;;;;;;;;;;3.70;99.90;;;;;;5023702;28;19919;-77
2022/12/16 01:32:17;;;;;;;;;;;3.90;99.90;;;;;;5006601;28;20004;-77
2022/12/16 01:34:43;;;;;;;;;;;3.90;99.90;;;;;;5019901;28;19912;-77
2022/12/16 01:37:12;;;;;;;;;;;4.10;99.90;;;;;;5026693;28;20005;-76
2022/12/16 01:39:37;;;;;;;;;;;4.10;99.90;;;;;;5025776;28;20306;-77
2022/12/16 01:42:03;;;;;;;;;;;4.20;99.90;;;;;;5020860;28;19917;-76
2022/12/16 01:44:28;;;;;;;;;;;4.20;99.90;;;;;;5024219;28;19914;-76
2022/12/16 01:46:56;;;;;;;;;;;4.50;99.90;;;;;;5033605;28;19983;-76
2022/12/16 01:49:25;;;;;;;;;;;4.40;99.90;;;;;;5025432;28;20072;-77
2022/12/16 01:51:51;;;;;;;;;;;4.50;99.90;;;;;;5028009;28;20075;-77
2022/12/16 01:54:37;;;;;;;;;;;4.50;99.90;;;;;;5030015;28;19909;-79
2022/12/16 01:57:05;;;;;;;;;;;4.50;99.90;;;;;;5012660;28;19932;-75
2022/12/16 01:59:32;;;;;;;;;;;4.50;99.90;;;;;;5030895;28;19909;-77
2022/12/16 02:01:58;;;;;;;;;;;4.40;99.90;;;;;;5024365;28;19909;-77
2022/12/16 02:04:23;;;;;;;;;;;4.40;99.90;;;;;;5011902;28;19912;-76
2022/12/16 02:06:49;;;;;;;;;;;4.50;99.90;;;;;;5021515;28;19917;-76
2022/12/16 02:09:15;;;;;;;;;;;4.50;99.90;;;;;;5021812;28;20007;-78
2022/12/16 02:11:41;;;;;;;;;;;4.50;99.90;;;;;;5028770;28;20275;-77
2022/12/16 02:14:09;;;;;;;;;;;4.50;99.90;;;;;;5019585;28;19909;-77
2022/12/16 02:16:35;;;;;;;;;;;4.60;99.90;;;;;;5021670;28;19913;-76
2022/12/16 02:19:12;;;;;;;;;;;4.60;99.90;;;;;;5022922;28;19913;-76
2022/12/16 02:21:56;;;;;;;;;;;4.70;99.90;;;;;;5025920;28;19928;-77
2022/12/16 02:24:22;;;;;;;;;;;4.70;99.90;;;;;;5017024;28;19916;-77
2022/12/16 02:26:47;;;;;;;;;;;4.70;99.90;;;;;;5027954;28;19910;-77
2022/12/16 02:29:12;;;;;;;;;;;4.70;99.90;;;;;;5027095;28;19909;-77
2022/12/16 02:31:38;;;;;;;;;;;4.70;99.90;;;;;;5027056;28;19905;-77
2022/12/16 02:34:08;;;;;;;;;;;4.70;99.90;;;;;;5020667;28;19949;-76
2022/12/16 02:36:51;;;;;;;;;;;4.80;99.90;;;;;;5026721;28;19913;-75
2022/12/16 02:39:20;;;;;;;;;;;4.80;99.90;;;;;;5029576;28;20008;-76
2022/12/16 02:41:49;;;;;;;;;;;4.80;99.90;;;;;;5027077;28;19944;-76
2022/12/16 02:44:17;;;;;;;;;;;4.80;99.90;;;;;;5024848;28;19915;-76
2022/12/16 02:46:51;;;;;;;;;;;4.90;99.90;;;;;;5025770;28;20491;-77
2022/12/16 02:49:17;;;;;;;;;;;4.90;99.90;;;;;;5026221;28;19916;-76
2022/12/16 02:51:43;;;;;;;;;;;4.90;99.90;;;;;;5022108;28;19909;-76
2022/12/16 02:54:09;;;;;;;;;;;5.00;99.90;;;;;;5024489;28;19940;-76
2022/12/16 02:56:54;;;;;;;;;;;4.90;99.90;;;;;;5026790;28;19951;-77
2022/12/16 02:59:39;;;;;;;;;;;4.90;99.90;;;;;;5027233;28;19916;-77
2022/12/16 03:02:14;;;;;;;;;;;5.00;99.90;;;;;;5023446;28;20419;-76
2022/12/16 03:04:43;;;;;;;;;;;5.00;99.90;;;;;;5021698;28;19941;-76
2022/12/16 03:07:11;;;;;;;;;;;5.00;99.90;;;;;;5028126;28;19936;-78
2022/12/16 03:09:37;;;;;;;;;;;4.90;99.90;;;;;;5007421;28;19914;-76
2022/12/16 03:12:05;;;;;;;;;;;5.00;99.90;;;;;;5023427;28;19984;-77
2022/12/16 03:14:32;;;;;;;;;;;4.90;99.90;;;;;;5027089;28;20033;-76
2022/12/16 03:16:58;;;;;;;;;;;4.80;99.90;;;;;;5007652;28;19948;-75
2022/12/16 03:19:25;;;;;;;;;;;4.80;99.90;;;;;;5027339;28;20003;-75
2022/12/16 03:21:58;;;;;;;;;;;4.70;99.90;;;;;;5027335;28;19960;-77
2022/12/16 03:24:24;;;;;;;;;;;4.70;99.90;;;;;;5020716;28;20376;-77
2022/12/16 03:27:02;;;;;;;;;;;4.60;99.90;;;;;;5027730;28;19924;-78
2022/12/16 03:29:44;;;;;;;;;;;4.50;99.90;;;;;;5029558;28;19921;-76
2022/12/16 03:32:14;;;;;;;;;;;4.40;99.90;;;;;;5019123;28;19999;-77
2022/12/16 03:34:42;;;;;;;;;;;4.30;99.90;;;;;;5025792;28;19913;-77
2022/12/16 03:37:08;;;;;;;;;;;4.20;99.90;;;;;;5027397;28;20315;-77
2022/12/16 03:39:37;;;;;;;;;;;4.20;99.90;;;;;;5027671;28;20374;-76
2022/12/16 03:42:03;;;;;;;;;;;4.00;99.90;;;;;;5006238;28;19917;-73
2022/12/16 03:44:28;;;;;;;;;;;3.90;99.90;;;;;;5028276;28;19913;-75
2022/12/16 03:46:54;;;;;;;;;;;3.80;99.90;;;;;;5028360;28;19918;-76
2022/12/16 03:49:20;;;;;;;;;;;3.70;99.90;;;;;;5016546;28;19913;-76
2022/12/16 03:51:45;;;;;;;;;;;3.60;99.90;;;;;;5028347;28;19921;-77
2022/12/16 03:54:11;;;;;;;;;;;3.50;99.90;;;;;;5025869;28;20622;-76
2022/12/16 03:56:36;;;;;;;;;;;3.50;99.90;;;;;;5032711;28;20032;-77
2022/12/16 03:59:02;;;;;;;;;;;3.40;99.90;;;;;;5035498;28;19952;-76
2022/12/16 04:01:27;;;;;;;;;;;3.30;99.90;;;;;;5014674;28;19969;-77
2022/12/16 04:03:53;;;;;;;;;;;3.20;99.90;;;;;;5022728;28;19984;-76
2022/12/16 04:06:18;;;;;;;;;;;3.00;99.90;;;;;;5017545;28;19979;-75
2022/12/16 04:08:45;;;;;;;;;;;2.80;99.90;;;;;;5019137;28;19943;-75
2022/12/16 04:24:56;;;;;;;;;;;2.10;99.90;;;;;;5016295;28;19963;-76
2022/12/16 04:27:24;;;;;;;;;;;2.10;99.90;;;;;;5018269;28;20621;-76
